createdAt,value
2019-01-30T00:00:39.308Z,91.00
2019-01-30T00:03:10.051Z,90.90
2019-01-30T00:05:40.818Z,91.00
2019-01-30T00:08:11.505Z,91.10
2019-01-30T00:10:42.368Z,91.40
2019-01-30T00:13:13.089Z,91.20
2019-01-30T00:15:44.057Z,91.20
2019-01-30T00:18:14.749Z,91.30
2019-01-30T00:20:45.543Z,91.30
2019-01-30T00:23:16.433Z,91.10
2019-01-30T00:25:47.303Z,91.20
2019-01-30T00:28:18.105Z,91.30
2019-01-30T00:30:48.895Z,91.30
2019-01-30T00:33:19.696Z,91.30
2019-01-30T00:35:51.523Z,91.30
2019-01-30T00:38:22.321Z,91.40
2019-01-30T00:40:53.052Z,91.30
2019-01-30T00:43:23.989Z,91.30
2019-01-30T00:45:54.673Z,91.40
2019-01-30T00:48:25.308Z,91.50
2019-01-30T00:50:56.062Z,91.50
2019-01-30T00:53:26.866Z,91.50
2019-01-30T00:55:57.529Z,91.50
2019-01-30T00:58:28.250Z,91.50
2019-01-30T01:01:00.960Z,91.50
2019-01-30T01:03:32.720Z,91.50
2019-01-30T01:06:03.515Z,91.50
2019-01-30T01:08:34.384Z,91.50
2019-01-30T01:11:05.426Z,91.60
2019-01-30T01:13:36.145Z,91.40
2019-01-30T01:16:06.922Z,91.40
2019-01-30T01:18:37.627Z,91.50
2019-01-30T01:21:08.454Z,91.60
2019-01-30T01:23:39.327Z,91.60
2019-01-30T01:26:10.077Z,91.70
2019-01-30T01:28:40.823Z,91.70
2019-01-30T01:31:11.596Z,91.60
2019-01-30T01:33:42.421Z,91.50
2019-01-30T01:36:13.246Z,91.60
2019-01-30T01:38:44.046Z,91.70
2019-01-30T01:41:14.821Z,92.00
2019-01-30T01:43:45.693Z,92.00
2019-01-30T01:46:16.927Z,92.10
2019-01-30T01:48:47.749Z,92.20
2019-01-30T02:10:24.377Z,92.40
2019-01-30T02:12:55.745Z,92.50
2019-01-30T02:15:26.475Z,92.60
2019-01-30T02:17:57.326Z,92.50
2019-01-30T02:20:30.285Z,92.60
2019-01-30T02:23:01.065Z,92.60
2019-01-30T02:25:32.762Z,92.60
2019-01-30T02:28:03.670Z,92.70
2019-01-30T02:30:34.882Z,92.70
2019-01-30T02:33:06.107Z,92.70
2019-01-30T02:35:37.844Z,92.80
2019-01-30T02:38:08.771Z,92.70
2019-01-30T02:40:39.606Z,92.80
2019-01-30T02:43:10.357Z,92.70
2019-01-30T02:45:41.079Z,92.80
2019-01-30T02:48:12.058Z,92.70
2019-01-30T02:50:42.867Z,92.70
2019-01-30T02:53:13.613Z,92.70
2019-01-30T02:55:45.947Z,92.70
2019-01-30T02:58:17.466Z,92.80
2019-01-30T03:00:58.563Z,92.50
2019-01-30T03:03:20.729Z,92.40
2019-01-30T03:05:51.531Z,92.20
2019-01-30T03:08:22.261Z,92.30
2019-01-30T03:10:53.553Z,92.30
2019-01-30T03:13:25.035Z,92.30
2019-01-30T03:15:56.217Z,92.40
2019-01-30T03:18:27.203Z,92.20
2019-01-30T03:20:58.876Z,92.20
2019-01-30T03:23:32.544Z,92.30
2019-01-30T03:26:03.410Z,92.30
2019-01-30T03:28:35.221Z,92.40
2019-01-30T03:31:16.969Z,92.50
2019-01-30T03:33:38.491Z,92.50
2019-01-30T03:36:09.241Z,92.40
2019-01-30T03:38:40.077Z,92.20
2019-01-30T03:41:10.993Z,92.20
2019-01-30T03:43:41.783Z,92.20
2019-01-30T03:46:12.565Z,92.20
2019-01-30T03:48:43.382Z,92.30
2019-01-30T03:51:14.082Z,92.30
2019-01-30T03:53:45.485Z,92.30
2019-01-30T03:56:17.247Z,92.20
2019-01-30T03:58:47.994Z,92.20
2019-01-30T04:01:26.562Z,92.30
2019-01-30T04:03:51.247Z,92.30
2019-01-30T04:06:22.003Z,92.30
2019-01-30T04:08:52.806Z,92.30
2019-01-30T04:11:23.530Z,92.30
2019-01-30T04:13:54.182Z,92.30
2019-01-30T04:16:24.829Z,92.30
2019-01-30T04:18:55.601Z,92.30
2019-01-30T04:21:26.384Z,92.40
2019-01-30T04:23:57.089Z,92.20
2019-01-30T04:26:27.853Z,92.20
2019-01-30T04:28:58.582Z,92.10
2019-01-30T04:31:37.920Z,92.10
2019-01-30T04:34:01.781Z,92.00
2019-01-30T04:36:34.098Z,91.90
2019-01-30T04:39:07.322Z,91.90
2019-01-30T04:41:38.119Z,92.00
2019-01-30T04:44:09.007Z,92.10
2019-01-30T04:46:39.662Z,92.20
2019-01-30T04:49:10.462Z,92.30
2019-01-30T04:51:41.084Z,92.30
2019-01-30T04:54:11.842Z,92.20
2019-01-30T04:56:42.536Z,92.20
2019-01-30T04:59:13.261Z,92.30
2019-01-30T05:01:49.756Z,92.20
2019-01-30T05:04:16.413Z,92.30
2019-01-30T05:06:47.142Z,92.10
2019-01-30T05:09:17.906Z,92.20
2019-01-30T05:11:48.681Z,92.10
2019-01-30T05:14:19.546Z,92.00
2019-01-30T05:16:50.249Z,92.00
2019-01-30T05:19:20.991Z,92.10
2019-01-30T05:21:51.830Z,92.20
2019-01-30T05:24:23.343Z,92.20
2019-01-30T05:26:54.100Z,92.30
2019-01-30T05:29:24.849Z,92.40
2019-01-30T05:32:01.225Z,92.40
2019-01-30T05:34:27.988Z,92.40
2019-01-30T05:36:58.731Z,92.50
2019-01-30T05:39:29.445Z,92.50
2019-01-30T05:42:00.152Z,92.50
2019-01-30T05:44:30.902Z,92.40
2019-01-30T05:47:01.651Z,92.40
2019-01-30T05:49:33.350Z,92.40
2019-01-30T05:52:04.647Z,92.30
2019-01-30T05:54:35.862Z,92.30
2019-01-30T05:57:06.695Z,92.20
2019-01-30T05:59:37.567Z,92.00
2019-01-30T06:02:12.032Z,92.10
2019-01-30T06:04:40.707Z,92.10
2019-01-30T06:07:11.604Z,92.20
2019-01-30T06:09:42.389Z,92.20
2019-01-30T06:12:13.136Z,92.10
2019-01-30T06:14:43.914Z,92.30
2019-01-30T06:17:14.715Z,92.30
2019-01-30T06:19:45.619Z,92.30
2019-01-30T06:22:19.428Z,92.30
2019-01-30T06:24:50.417Z,92.30
2019-01-30T06:27:21.230Z,92.30
2019-01-30T06:29:53.554Z,92.10
2019-01-30T06:32:24.339Z,92.10
2019-01-30T06:34:56.766Z,92.10
2019-01-30T06:37:27.563Z,92.10
2019-01-30T06:39:59.265Z,92.00
2019-01-30T06:42:30.013Z,92.10
2019-01-30T06:45:00.946Z,92.10
2019-01-30T06:47:31.651Z,92.10
2019-01-30T06:50:03.506Z,92.20
2019-01-30T06:52:34.270Z,92.20
2019-01-30T06:55:06.205Z,92.30
2019-01-30T06:57:37.030Z,92.30
2019-01-30T07:00:14.923Z,92.50
2019-01-30T07:02:47.491Z,92.40
2019-01-30T07:05:18.270Z,92.10
2019-01-30T07:07:49.010Z,92.10
2019-01-30T07:10:21.638Z,92.20
2019-01-30T07:12:52.911Z,92.30
2019-01-30T07:15:24.493Z,92.50
2019-01-30T07:17:56.333Z,92.60
2019-01-30T07:20:28.321Z,92.80
2019-01-30T07:22:59.187Z,92.70
2019-01-30T07:25:29.947Z,92.70
2019-01-30T07:28:00.706Z,92.70
2019-01-30T07:30:33.774Z,92.80
2019-01-30T07:33:04.809Z,92.80
2019-01-30T07:35:38.139Z,92.80
2019-01-30T07:38:08.914Z,92.90
2019-01-30T07:40:39.728Z,92.90
2019-01-30T07:43:10.569Z,92.90
2019-01-30T07:45:41.533Z,92.90
2019-01-30T07:48:12.300Z,93.00
2019-01-30T07:50:43.055Z,93.00
2019-01-30T07:53:13.774Z,93.00
2019-01-30T07:55:44.480Z,93.00
2019-01-30T07:58:15.249Z,93.00
2019-01-30T08:00:46.033Z,92.90
2019-01-30T08:03:16.858Z,92.80
2019-01-30T08:05:47.873Z,92.80
2019-01-30T08:08:18.714Z,92.80
2019-01-30T08:10:49.652Z,92.80
2019-01-30T08:13:20.514Z,92.80
2019-01-30T08:15:51.256Z,93.10
2019-01-30T08:18:22.186Z,92.80
2019-01-30T08:20:52.914Z,92.80
2019-01-30T08:23:23.850Z,92.80
2019-01-30T08:25:54.725Z,92.50
2019-01-30T08:28:25.806Z,92.50
2019-01-30T08:30:56.904Z,92.30
2019-01-30T08:33:27.692Z,92.30
2019-01-30T08:35:59.193Z,92.40
2019-01-30T08:38:30.010Z,92.00
2019-01-30T08:41:01.071Z,91.90
2019-01-30T08:43:32.149Z,92.00
2019-01-30T08:46:03.513Z,92.00
2019-01-30T08:48:34.829Z,91.70
2019-01-30T08:51:05.986Z,91.20
2019-01-30T08:53:36.944Z,91.30
2019-01-30T08:56:07.967Z,91.00
2019-01-30T08:58:38.760Z,91.20
2019-01-30T09:01:09.813Z,91.20
2019-01-30T09:03:40.781Z,91.30
2019-01-30T09:06:13.110Z,91.30
2019-01-30T09:08:44.218Z,91.40
2019-01-30T09:11:15.412Z,91.00
2019-01-30T09:13:46.241Z,90.60
2019-01-30T09:16:17.224Z,90.60
2019-01-30T09:18:48.436Z,90.50
2019-01-30T09:21:19.570Z,90.20
2019-01-30T09:23:52.341Z,89.40
2019-01-30T09:26:23.482Z,90.00
2019-01-30T09:28:54.320Z,90.10
2019-01-30T09:31:27.775Z,90.20
2019-01-30T09:33:58.737Z,89.70
2019-01-30T09:36:29.754Z,90.00
2019-01-30T09:39:00.845Z,89.20
2019-01-30T09:41:31.743Z,88.60
2019-01-30T09:44:02.508Z,88.90
2019-01-30T09:46:33.340Z,88.30
2019-01-30T09:49:04.127Z,86.60
2019-01-30T09:51:35.069Z,87.10
2019-01-30T09:54:05.859Z,87.40
2019-01-30T09:56:36.593Z,87.40
2019-01-30T09:59:07.747Z,86.10
2019-01-30T10:01:38.546Z,86.40
2019-01-30T10:04:09.383Z,86.00
2019-01-30T10:06:40.208Z,85.60
2019-01-30T10:09:11.443Z,85.50
2019-01-30T10:11:42.254Z,84.60
2019-01-30T10:14:13.134Z,83.60
2019-01-30T10:16:44.031Z,84.00
2019-01-30T10:19:14.850Z,83.40
2019-01-30T10:21:45.918Z,83.00
2019-01-30T10:24:18.233Z,84.20
2019-01-30T10:26:49.023Z,84.50
2019-01-30T10:29:19.789Z,84.80
2019-01-30T10:31:50.570Z,82.80
2019-01-30T10:34:21.321Z,83.70
2019-01-30T10:36:52.178Z,83.60
2019-01-30T10:39:22.874Z,81.50
2019-01-30T10:41:53.568Z,81.70
2019-01-30T10:44:24.271Z,81.00
2019-01-30T10:46:55.147Z,81.50
2019-01-30T10:49:25.995Z,82.10
2019-01-30T10:51:56.834Z,81.60
2019-01-30T10:54:27.610Z,80.90
2019-01-30T10:56:58.853Z,80.10
2019-01-30T10:59:31.167Z,80.70
2019-01-30T11:02:02.000Z,80.50
2019-01-30T11:04:32.764Z,80.70
2019-01-30T11:07:03.584Z,81.60
2019-01-30T11:09:34.386Z,81.10
2019-01-30T11:12:05.359Z,81.30
2019-01-30T11:14:36.402Z,79.80
2019-01-30T11:17:08.724Z,80.50
2019-01-30T11:19:39.606Z,80.90
2019-01-30T11:22:10.635Z,80.50
2019-01-30T11:24:41.461Z,80.30
2019-01-30T11:27:12.211Z,80.40
2019-01-30T11:29:43.011Z,78.50
2019-01-30T11:32:15.694Z,78.40
2019-01-30T11:34:46.465Z,79.40
2019-01-30T11:37:17.262Z,77.70
2019-01-30T11:39:48.116Z,77.40
2019-01-30T11:42:20.491Z,75.90
2019-01-30T11:44:51.266Z,75.20
2019-01-30T11:47:22.106Z,75.00
2019-01-30T11:49:53.031Z,75.60
2019-01-30T11:52:23.807Z,75.50
2019-01-30T11:54:54.469Z,75.60
2019-01-30T11:57:26.094Z,77.60
2019-01-30T11:59:57.922Z,78.90
2019-01-30T12:02:28.762Z,79.20
2019-01-30T12:04:59.421Z,79.90
2019-01-30T12:07:30.191Z,79.40
2019-01-30T12:10:01.050Z,79.50
2019-01-30T12:12:32.046Z,78.30
2019-01-30T12:15:02.823Z,77.10
2019-01-30T12:17:33.792Z,77.30
2019-01-30T12:20:05.765Z,77.80
2019-01-30T12:22:37.493Z,78.40
2019-01-30T12:25:10.911Z,78.20
2019-01-30T12:27:41.846Z,77.00
2019-01-30T12:30:18.046Z,78.10
2019-01-30T12:32:48.975Z,77.90
2019-01-30T12:35:19.951Z,77.80
2019-01-30T12:37:50.921Z,77.10
2019-01-30T12:40:22.459Z,78.50
2019-01-30T12:42:53.572Z,78.00
2019-01-30T12:45:26.929Z,79.20
2019-01-30T12:47:58.468Z,80.80
2019-01-30T12:50:30.151Z,81.60
2019-01-30T12:53:01.593Z,81.40
2019-01-30T12:55:32.754Z,81.30
2019-01-30T12:58:03.482Z,82.10
2019-01-30T13:00:40.355Z,81.10
2019-01-30T13:03:11.291Z,82.10
2019-01-30T13:05:42.236Z,81.50
2019-01-30T13:08:13.038Z,81.50
2019-01-30T13:10:43.879Z,83.00
2019-01-30T13:13:14.856Z,83.70
2019-01-30T13:15:45.689Z,84.20
2019-01-30T13:18:18.625Z,83.80
2019-01-30T13:20:49.045Z,84.20
2019-01-30T13:23:19.969Z,84.60
2019-01-30T13:25:50.773Z,84.30
2019-01-30T13:28:21.501Z,84.20
2019-01-30T13:30:52.318Z,84.80
2019-01-30T13:33:23.046Z,85.10
2019-01-30T13:35:55.630Z,85.10
2019-01-30T13:38:26.907Z,85.10
2019-01-30T13:40:57.690Z,85.20
2019-01-30T13:43:28.461Z,86.30
2019-01-30T13:46:05.218Z,84.90
2019-01-30T13:48:32.126Z,85.60
2019-01-30T13:51:03.045Z,87.10
2019-01-30T13:53:37.197Z,86.90
2019-01-30T13:56:07.984Z,86.40
2019-01-30T13:58:38.931Z,86.80
2019-01-30T14:01:17.270Z,86.50
2019-01-30T14:03:42.516Z,87.60
2019-01-30T14:06:13.640Z,87.30
2019-01-30T14:08:44.768Z,87.70
2019-01-30T14:11:16.029Z,86.80
2019-01-30T14:13:48.611Z,87.20
2019-01-30T14:16:19.458Z,87.80
2019-01-30T14:18:50.815Z,87.10
2019-01-30T14:21:21.851Z,87.70
2019-01-30T14:23:52.806Z,88.20
2019-01-30T14:26:23.757Z,87.20
2019-01-30T14:28:57.672Z,87.90
2019-01-30T14:31:28.515Z,88.30
2019-01-30T14:33:59.670Z,88.50
2019-01-30T14:36:30.777Z,88.70
2019-01-30T14:39:01.654Z,89.20
2019-01-30T14:41:33.851Z,89.20
2019-01-30T14:44:04.937Z,89.90
2019-01-30T14:46:35.751Z,90.10
2019-01-30T14:49:08.060Z,90.40
2019-01-30T14:51:38.867Z,90.60
2019-01-30T14:54:09.955Z,90.60
2019-01-30T14:56:40.767Z,90.70
2019-01-30T14:59:11.811Z,90.80
2019-01-30T15:01:42.609Z,90.90
2019-01-30T15:04:14.030Z,91.20
2019-01-30T15:06:44.853Z,91.30
2019-01-30T15:09:15.749Z,91.80
2019-01-30T15:11:46.674Z,91.90
2019-01-30T15:14:17.747Z,92.10
2019-01-30T15:16:48.660Z,92.20
2019-01-30T15:19:19.543Z,92.70
2019-01-30T15:21:50.508Z,93.00
2019-01-30T15:24:21.541Z,93.30
2019-01-30T15:26:53.184Z,93.60
2019-01-30T15:29:24.266Z,93.50
2019-01-30T15:31:56.587Z,93.70
2019-01-30T15:34:27.461Z,93.70
2019-01-30T15:36:58.992Z,93.90
2019-01-30T15:39:29.850Z,94.10
2019-01-30T15:42:00.766Z,94.30
2019-01-30T15:44:32.584Z,94.60
2019-01-30T15:47:03.618Z,94.60
2019-01-30T15:49:37.353Z,94.80
2019-01-30T15:52:08.136Z,95.10
2019-01-30T15:54:39.042Z,94.90
2019-01-30T15:57:09.879Z,94.90
2019-01-30T15:59:40.658Z,95.10
2019-01-30T16:02:11.492Z,95.40
2019-01-30T16:04:42.632Z,95.50
2019-01-30T16:07:13.650Z,95.30
2019-01-30T16:09:44.853Z,95.60
2019-01-30T16:12:15.646Z,95.70
2019-01-30T16:14:46.446Z,95.70
2019-01-30T16:17:17.245Z,95.80
2019-01-30T16:19:49.380Z,95.70
2019-01-30T16:22:21.357Z,95.70
2019-01-30T16:24:52.985Z,95.80
2019-01-30T16:27:24.786Z,95.70
2019-01-30T16:29:55.636Z,95.80
2019-01-30T16:32:26.426Z,96.00
2019-01-30T16:35:00.682Z,95.90
2019-01-30T16:37:33.520Z,95.90
2019-01-30T16:40:05.442Z,95.90
2019-01-30T16:42:54.363Z,96.00
2019-01-30T16:45:38.541Z,96.20
2019-01-30T16:48:09.517Z,96.50
2019-01-30T16:50:40.256Z,96.50
2019-01-30T16:53:11.030Z,96.70
2019-01-30T16:55:41.790Z,96.60
2019-01-30T16:58:12.674Z,96.40
2019-01-30T17:00:43.405Z,96.30
2019-01-30T17:03:14.123Z,96.30
2019-01-30T17:05:45.241Z,96.70
2019-01-30T17:08:16.026Z,96.40
2019-01-30T17:10:46.768Z,96.40
2019-01-30T17:13:17.506Z,96.50
2019-01-30T17:15:48.211Z,96.50
2019-01-30T17:18:19.300Z,96.60
2019-01-30T17:20:51.143Z,96.70
2019-01-30T17:23:22.112Z,96.70
2019-01-30T17:25:53.235Z,96.80
2019-01-30T17:28:24.812Z,96.90
2019-01-30T17:31:00.147Z,96.90
2019-01-30T17:33:30.865Z,96.90
2019-01-30T17:36:01.621Z,97.00
2019-01-30T17:38:32.476Z,97.00
2019-01-30T17:41:03.321Z,97.00
2019-01-30T17:43:34.070Z,97.00
2019-01-30T17:46:04.932Z,97.00
2019-01-30T17:48:35.897Z,97.00
2019-01-30T17:51:08.345Z,97.10
2019-01-30T17:53:40.006Z,97.10
2019-01-30T17:56:10.937Z,97.10
2019-01-30T17:58:43.264Z,97.10
2019-01-30T18:01:14.099Z,97.10
2019-01-30T18:03:44.906Z,97.10
2019-01-30T18:06:15.790Z,97.10
2019-01-30T18:08:48.189Z,97.20
2019-01-30T18:11:19.009Z,97.20
2019-01-30T18:13:49.738Z,97.20
2019-01-30T18:16:20.559Z,97.20
2019-01-30T18:18:51.336Z,97.30
2019-01-30T18:21:22.117Z,97.30
2019-01-30T18:23:53.034Z,97.40
2019-01-30T18:26:23.766Z,97.50
2019-01-30T18:28:54.582Z,97.50
2019-01-30T18:31:25.420Z,97.50
2019-01-30T18:33:56.257Z,97.50
2019-01-30T18:36:27.074Z,97.50
2019-01-30T18:38:57.891Z,97.50
2019-01-30T18:41:28.713Z,97.60
2019-01-30T18:43:59.823Z,97.60
2019-01-30T18:46:30.581Z,97.60
2019-01-30T18:49:01.380Z,97.60
2019-01-30T18:51:32.215Z,97.60
2019-01-30T18:54:03.029Z,97.60
2019-01-30T18:56:36.493Z,97.60
2019-01-30T18:59:06.500Z,97.60
2019-01-30T19:01:37.327Z,97.70
2019-01-30T19:04:08.231Z,97.70
2019-01-30T19:06:39.013Z,97.60
2019-01-30T19:09:11.308Z,97.70
2019-01-30T19:11:43.606Z,97.70
2019-01-30T19:14:14.410Z,97.70
2019-01-30T19:16:45.231Z,97.70
2019-01-30T19:19:16.031Z,97.70
2019-01-30T19:21:46.742Z,97.70
2019-01-30T19:24:19.848Z,97.70
2019-01-30T19:26:50.778Z,97.70
2019-01-30T19:29:21.595Z,97.60
2019-01-30T19:31:52.501Z,97.70
2019-01-30T19:34:23.715Z,97.70
2019-01-30T19:37:03.250Z,97.80
2019-01-30T19:39:27.106Z,97.80
2019-01-30T19:41:58.079Z,97.80
2019-01-30T19:44:29.826Z,97.90
2019-01-30T19:47:00.658Z,97.90
2019-01-30T19:49:31.544Z,98.00
2019-01-30T19:52:02.535Z,98.00
2019-01-30T19:54:34.369Z,98.00
2019-01-30T19:57:05.156Z,98.00
2019-01-30T19:59:36.015Z,98.00
2019-01-30T20:02:07.304Z,98.10
2019-01-30T20:04:38.679Z,98.10
2019-01-30T20:07:14.965Z,98.20
2019-01-30T20:09:44.774Z,98.20
2019-01-30T20:12:14.677Z,98.20
2019-01-30T20:14:47.111Z,98.20
2019-01-30T20:17:17.917Z,98.20
2019-01-30T20:19:48.839Z,98.30
2019-01-30T20:22:19.573Z,98.30
2019-01-30T20:24:52.193Z,98.30
2019-01-30T20:27:23.125Z,98.30
2019-01-30T20:29:53.938Z,98.40
2019-01-30T20:32:24.736Z,98.30
2019-01-30T20:34:56.459Z,98.40
2019-01-30T20:37:28.758Z,98.40
2019-01-30T20:39:59.654Z,98.30
2019-01-30T20:42:30.579Z,98.40
2019-01-30T20:45:01.350Z,98.40
2019-01-30T20:47:32.049Z,98.40
2019-01-30T20:50:03.074Z,98.50
2019-01-30T20:52:33.871Z,98.50
2019-01-30T20:55:05.407Z,98.50
2019-01-30T20:57:36.233Z,98.50
2019-01-30T21:00:10.499Z,98.50
2019-01-30T21:02:42.027Z,98.60
2019-01-30T21:05:12.886Z,98.90
2019-01-30T21:07:43.687Z,98.50
2019-01-30T21:10:17.374Z,98.50
2019-01-30T21:12:49.934Z,98.50
2019-01-30T21:15:20.716Z,98.60
2019-01-30T21:17:51.653Z,98.60
2019-01-30T21:20:22.443Z,98.60
2019-01-30T21:22:53.166Z,98.50
2019-01-30T21:25:24.642Z,98.50
2019-01-30T21:27:55.404Z,98.60
2019-01-30T21:30:28.425Z,98.50
2019-01-30T21:33:00.846Z,98.40
2019-01-30T21:35:34.131Z,98.40
2019-01-30T21:38:05.508Z,98.40
2019-01-30T21:40:36.455Z,98.40
2019-01-30T21:43:07.353Z,98.40
2019-01-30T21:45:38.188Z,98.40
2019-01-30T21:48:08.918Z,98.40
2019-01-30T21:50:39.675Z,98.40
2019-01-30T21:53:11.288Z,98.30
2019-01-30T21:55:42.069Z,98.30
2019-01-30T21:58:14.349Z,98.30
2019-01-30T22:00:45.070Z,98.40
2019-01-30T22:03:15.849Z,98.40
2019-01-30T22:05:46.648Z,98.50
2019-01-30T22:08:17.456Z,98.50
2019-01-30T22:10:48.289Z,98.60
2019-01-30T22:13:19.104Z,98.60
2019-01-30T22:15:49.805Z,98.50
2019-01-30T22:18:20.606Z,98.50
2019-01-30T22:20:51.422Z,98.40
2019-01-30T22:23:22.188Z,98.40
2019-01-30T22:25:52.978Z,98.40
2019-01-30T22:28:24.759Z,98.50
2019-01-30T22:30:55.570Z,98.50
2019-01-30T22:33:26.345Z,98.50
2019-01-30T22:35:57.130Z,98.60
2019-01-30T22:38:28.011Z,98.60
2019-01-30T22:40:58.783Z,98.60
2019-01-30T22:43:29.644Z,98.60
2019-01-30T22:46:00.527Z,98.60
2019-01-30T22:48:31.266Z,98.70
2019-01-30T22:51:02.016Z,98.70
2019-01-30T22:53:32.734Z,98.70
2019-01-30T22:56:03.475Z,98.70
2019-01-30T22:58:35.849Z,98.70
2019-01-30T23:01:39.546Z,98.60
2019-01-30T23:04:38.607Z,98.60
2019-01-30T23:07:36.448Z,98.60
2019-01-30T23:10:53.806Z,98.70
2019-01-30T23:13:56.675Z,98.70
2019-01-30T23:17:05.304Z,98.60
2019-01-30T23:19:55.826Z,98.60
2019-01-30T23:23:10.692Z,98.60
2019-01-30T23:26:14.364Z,98.70
2019-01-30T23:29:34.299Z,98.60
2019-01-30T23:32:44.525Z,98.60
2019-01-30T23:36:00.819Z,98.70
2019-01-30T23:39:20.369Z,98.70
2019-01-30T23:42:16.194Z,98.80
2019-01-30T23:45:01.950Z,98.80
2019-01-30T23:48:08.181Z,98.80
2019-01-30T23:50:53.278Z,98.80
2019-01-30T23:53:45.651Z,98.70
2019-01-30T23:56:33.173Z,98.80
2019-01-30T23:59:41.912Z,98.80
